Time;durP1;ratioP1;P1;durP2;ratioP2;P2;SDS_P1;SDS_P2;PMS_P1;PMS_P2;Temp;Humidity;BMP_temperature;BMP_pressure;BME280_temperature;BME280_humidity;BME280_pressure;Samples;Min_cycle;Max_cycle;Signal;HPM_P1;HPM_P2
2021/04/05 00:00:39;;;;;;;13.17;7.03;;;5.30;99.90;;;;;;5120831;28;20462;-81
2021/04/05 00:03:05;;;;;;;8.87;5.57;;;4.80;99.90;;;;;;5120480;28;20396;-82
2021/04/05 00:05:33;;;;;;;13.87;6.80;;;4.90;99.90;;;;;;5120361;28;20278;-81
2021/04/05 00:07:59;;;;;;;11.80;6.67;;;4.80;99.90;;;;;;5121047;28;20783;-81
2021/04/05 00:10:34;;;;;;;10.30;7.33;;;4.70;99.90;;;;;;5103231;28;20380;-81
2021/04/05 00:13:04;;;;;;;19.07;9.27;;;4.90;99.90;;;;;;5120725;28;20441;-81
2021/04/05 00:15:30;;;;;;;14.10;7.77;;;4.80;99.90;;;;;;5120132;28;20813;-81
2021/04/05 00:17:56;;;;;;;7.33;5.80;;;4.90;99.90;;;;;;5119607;28;20426;-81
2021/04/05 00:20:28;;;;;;;15.13;7.87;;;4.70;99.90;;;;;;5120581;28;20162;-81
2021/04/05 00:22:54;;;;;;;7.87;7.07;;;4.40;99.90;;;;;;5120669;28;20208;-81
2021/04/05 00:25:19;;;;;;;11.70;7.20;;;4.10;99.90;;;;;;5120457;28;20399;-80
2021/04/05 00:27:45;;;;;;;21.43;7.63;;;4.20;99.90;;;;;;5119902;28;20257;-82
2021/04/05 00:30:17;;;;;;;13.70;8.07;;;4.20;99.90;;;;;;5120043;28;20243;-81
2021/04/05 00:32:45;;;;;;;13.03;7.77;;;4.50;99.90;;;;;;5120274;28;20642;-81
2021/04/05 00:35:12;;;;;;;9.63;8.13;;;4.00;99.90;;;;;;5119805;28;20388;-81
2021/04/05 00:37:38;;;;;;;8.40;7.50;;;4.00;99.90;;;;;;5119630;28;20446;-81
2021/04/05 00:40:08;;;;;;;12.97;9.03;;;3.90;99.90;;;;;;5101612;28;20380;-81
2021/04/05 00:42:34;;;;;;;14.33;7.83;;;3.60;99.90;;;;;;5119858;28;20162;-81
2021/04/05 00:45:04;;;;;;;16.53;7.77;;;3.80;99.90;;;;;;5119324;28;20395;-81
2021/04/05 00:47:30;;;;;;;12.00;9.13;;;4.00;99.90;;;;;;5119184;28;20517;-81
2021/04/05 00:49:55;;;;;;;17.47;9.20;;;4.10;99.90;;;;;;5119227;28;20864;-81
2021/04/05 00:52:21;;;;;;;12.03;6.53;;;4.10;99.90;;;;;;5119332;28;20196;-82
2021/04/05 00:54:47;;;;;;;11.17;7.07;;;3.80;99.90;;;;;;5119917;28;20618;-81
2021/04/05 00:57:13;;;;;;;11.90;7.47;;;4.10;99.90;;;;;;5120038;28;20173;-82
2021/04/05 00:59:39;;;;;;;11.03;8.27;;;4.40;99.90;;;;;;5101872;28;21094;-82
2021/04/05 01:02:11;;;;;;;14.20;8.30;;;4.40;99.90;;;;;;5119844;28;20583;-82
2021/04/05 01:04:37;;;;;;;12.30;8.47;;;4.60;99.90;;;;;;5120706;28;20181;-82
2021/04/05 01:07:03;;;;;;;9.13;6.77;;;4.10;99.90;;;;;;5119822;28;20385;-82
2021/04/05 01:09:29;;;;;;;12.90;8.53;;;4.60;99.90;;;;;;5120283;28;20396;-81
2021/04/05 01:11:58;;;;;;;9.37;6.97;;;4.40;99.90;;;;;;5119198;28;20479;-81
2021/04/05 01:14:24;;;;;;;10.27;7.77;;;4.50;99.90;;;;;;5118972;28;20173;-81
2021/04/05 01:16:50;;;;;;;14.20;7.50;;;4.50;99.90;;;;;;5101572;28;20392;-81
2021/04/05 01:19:15;;;;;;;9.10;7.40;;;4.40;99.90;;;;;;5118859;28;20154;-81
2021/04/05 01:21:48;;;;;;;7.67;6.87;;;4.50;99.90;;;;;;5118666;28;20192;-81
2021/04/05 01:24:14;;;;;;;16.47;5.93;;;4.40;99.90;;;;;;5119207;28;20158;-81
2021/04/05 01:26:40;;;;;;;13.37;7.07;;;4.60;99.90;;;;;;5118972;28;20395;-81
2021/04/05 01:29:06;;;;;;;11.40;8.93;;;4.70;99.90;;;;;;5119192;28;20468;-81
2021/04/05 01:31:32;;;;;;;12.73;8.40;;;4.80;99.90;;;;;;5119065;28;20158;-81
2021/04/05 01:33:57;;;;;;;11.70;7.50;;;4.90;99.90;;;;;;5118939;28;20600;-81
2021/04/05 01:36:23;;;;;;;16.80;7.80;;;4.80;99.90;;;;;;5119210;28;20158;-82
2021/04/05 01:38:52;;;;;;;10.50;6.77;;;4.70;99.90;;;;;;5119041;28;20254;-81
2021/04/05 01:41:23;;;;;;;8.40;7.17;;;4.10;99.90;;;;;;5118821;28;20676;-81
2021/04/05 01:43:50;;;;;;;9.00;6.43;;;4.20;99.90;;;;;;5118703;28;20426;-81
2021/04/05 01:46:17;;;;;;;14.80;7.80;;;4.30;99.90;;;;;;5106732;28;20491;-81
2021/04/05 01:48:43;;;;;;;10.43;7.00;;;4.10;99.90;;;;;;5098307;28;20392;-81
2021/04/05 01:51:15;;;;;;;11.73;6.97;;;4.00;99.90;;;;;;5097819;28;20393;-81
2021/04/05 01:53:42;;;;;;;11.03;7.33;;;4.00;99.90;;;;;;5098739;28;20228;-81
2021/04/05 01:56:10;;;;;;;11.80;6.97;;;3.90;99.90;;;;;;5079845;28;20416;-81
2021/04/05 01:58:39;;;;;;;12.83;9.33;;;3.80;99.90;;;;;;5098176;28;20388;-81
2021/04/05 02:01:07;;;;;;;17.70;7.33;;;3.90;99.90;;;;;;5097475;28;20404;-82
2021/04/05 02:03:33;;;;;;;13.23;8.20;;;4.00;99.90;;;;;;5098577;28;20492;-82
2021/04/05 02:06:03;;;;;;;23.23;7.77;;;3.90;99.90;;;;;;5098688;28;20421;-81
2021/04/05 02:08:30;;;;;;;12.93;7.77;;;3.90;99.90;;;;;;5098543;28;20437;-81
2021/04/05 02:11:00;;;;;;;13.13;7.90;;;4.30;99.90;;;;;;5098468;28;20450;-81
2021/04/05 02:13:26;;;;;;;12.97;7.20;;;4.60;99.90;;;;;;5098521;28;20788;-82
2021/04/05 02:15:53;;;;;;;11.93;7.57;;;4.70;99.90;;;;;;5098607;28;20718;-81
2021/04/05 02:18:22;;;;;;;20.10;8.73;;;4.90;99.90;;;;;;5098531;28;20388;-81
2021/04/05 02:20:49;;;;;;;15.47;8.50;;;4.80;99.90;;;;;;5096764;28;20385;-81
2021/04/05 02:23:17;;;;;;;11.77;7.27;;;4.50;99.90;;;;;;5110033;28;20760;-82
2021/04/05 02:28:28;;;;;;;9.33;6.10;;;3.70;99.90;;;;;;5100916;28;20443;-81
2021/04/05 02:30:55;;;;;;;12.40;7.03;;;4.00;99.90;;;;;;5100165;28;20404;-81
2021/04/05 02:33:21;;;;;;;16.40;8.23;;;3.90;99.90;;;;;;5097836;28;20450;-81
2021/04/05 02:35:47;;;;;;;9.53;6.80;;;3.70;99.90;;;;;;5098520;28;20479;-81
2021/04/05 02:38:14;;;;;;;9.80;8.30;;;3.90;99.90;;;;;;5097980;28;20389;-80
2021/04/05 02:40:41;;;;;;;11.33;7.60;;;4.20;99.90;;;;;;5097893;28;20392;-81
2021/04/05 02:43:08;;;;;;;13.80;7.30;;;4.20;99.90;;;;;;5097615;28;20428;-82
2021/04/05 02:45:34;;;;;;;14.00;9.40;;;4.20;99.90;;;;;;5103095;28;20971;-80
2021/04/05 02:48:02;;;;;;;10.27;8.00;;;4.30;99.90;;;;;;5118134;28;20392;-82
2021/04/05 02:50:30;;;;;;;17.63;9.20;;;4.50;99.90;;;;;;5117968;28;20433;-82
2021/04/05 02:52:59;;;;;;;13.13;7.23;;;4.50;99.90;;;;;;5118862;28;20472;-79
2021/04/05 02:55:25;;;;;;;13.93;7.90;;;4.70;99.90;;;;;;5126176;28;20388;-79
2021/04/05 02:57:52;;;;;;;12.67;7.40;;;4.70;99.90;;;;;;5120913;28;20433;-82
2021/04/05 03:00:19;;;;;;;11.43;7.80;;;4.20;99.90;;;;;;5118013;28;20422;-82
2021/04/05 03:02:47;;;;;;;23.30;8.90;;;4.10;99.90;;;;;;5117706;28;20426;-81
2021/04/05 03:05:16;;;;;;;29.20;9.40;;;4.20;99.90;;;;;;5118547;28;20392;-82
2021/04/05 03:07:43;;;;;;;14.00;9.20;;;4.10;99.90;;;;;;5118250;28;20522;-81
2021/04/05 03:10:11;;;;;;;18.00;10.47;;;4.30;99.90;;;;;;5118044;28;20883;-82
2021/04/05 03:12:39;;;;;;;21.70;8.83;;;4.40;99.90;;;;;;5101570;28;20450;-82
2021/04/05 03:15:07;;;;;;;21.23;9.37;;;4.50;99.90;;;;;;5122194;28;20478;-81
2021/04/05 03:17:34;;;;;;;21.60;8.77;;;4.80;99.90;;;;;;5122401;28;20388;-81
2021/04/05 03:20:03;;;;;;;19.57;9.10;;;4.80;99.90;;;;;;5121681;28;20392;-82
2021/04/05 03:22:29;;;;;;;21.63;7.97;;;4.60;99.90;;;;;;5122392;28;20487;-81
2021/04/05 03:24:55;;;;;;;17.60;8.50;;;4.70;99.90;;;;;;5122170;28;20399;-81
2021/04/05 03:27:21;;;;;;;16.50;6.97;;;4.60;99.90;;;;;;5121768;28;20845;-82
2021/04/05 03:29:49;;;;;;;15.70;8.27;;;4.80;99.90;;;;;;5121686;28;20162;-82
2021/04/05 03:32:17;;;;;;;8.67;7.07;;;4.60;99.90;;;;;;5121850;28;20189;-82
2021/04/05 03:34:49;;;;;;;13.70;7.57;;;4.70;99.90;;;;;;5122506;28;20471;-82
2021/04/05 03:37:18;;;;;;;13.47;10.57;;;4.70;99.90;;;;;;5122072;28;20396;-82
2021/04/05 03:39:47;;;;;;;11.30;7.30;;;4.90;99.90;;;;;;5121691;28;20392;-82
2021/04/05 03:42:19;;;;;;;11.10;7.93;;;4.90;99.90;;;;;;5122387;28;20414;-82
2021/04/05 03:45:04;;;;;;;11.57;7.87;;;4.70;99.90;;;;;;5122164;28;20401;-82
2021/04/05 03:47:59;;;;;;;14.93;8.90;;;4.50;99.90;;;;;;5122056;28;20400;-82
2021/04/05 03:50:33;;;;;;;10.63;8.17;;;4.60;99.90;;;;;;5128077;28;20395;-79
2021/04/05 03:53:11;;;;;;;12.53;8.20;;;4.60;99.90;;;;;;5134561;28;20435;-79
2021/04/05 03:55:40;;;;;;;20.50;9.60;;;4.60;99.90;;;;;;5131701;28;20872;-80
2021/04/05 03:58:09;;;;;;;11.50;9.20;;;4.70;99.90;;;;;;5129602;28;20407;-79
2021/04/05 04:00:39;;;;;;;9.13;7.00;;;4.30;99.90;;;;;;5132029;28;20403;-79
2021/04/05 04:03:07;;;;;;;9.00;7.90;;;4.20;99.90;;;;;;5133672;28;20479;-78
2021/04/05 04:05:46;;;;;;;14.20;7.83;;;3.90;99.90;;;;;;5133129;28;20492;-79
2021/04/05 04:08:28;;;;;;;12.67;8.30;;;4.00;99.90;;;;;;5114840;28;20462;-79
2021/04/05 04:11:00;;;;;;;16.37;7.97;;;4.10;99.90;;;;;;5124341;28;20392;-82
2021/04/05 04:13:27;;;;;;;11.30;7.80;;;4.30;99.90;;;;;;5121802;28;20435;-81
2021/04/05 04:15:54;;;;;;;16.15;10.80;;;4.00;99.90;;;;;;5121061;28;20411;-82
2021/04/05 04:18:21;;;;;;;20.03;8.53;;;3.90;99.90;;;;;;5121420;28;20197;-81
2021/04/05 04:20:48;;;;;;;18.37;8.07;;;3.60;99.90;;;;;;5121878;28;20479;-81
2021/04/05 04:23:14;;;;;;;11.20;8.97;;;3.70;99.90;;;;;;5121051;28;20388;-81
2021/04/05 04:25:41;;;;;;;15.87;8.43;;;3.90;99.90;;;;;;5121210;28;20473;-82
2021/04/05 04:28:07;;;;;;;12.50;8.70;;;4.00;99.90;;;;;;5121208;28;20475;-82
2021/04/05 04:30:33;;;;;;;15.77;8.97;;;3.90;99.90;;;;;;5120894;28;20934;-82
2021/04/05 04:33:03;;;;;;;11.30;8.57;;;4.10;99.90;;;;;;5121058;28;20194;-81
2021/04/05 04:35:30;;;;;;;8.80;7.90;;;4.20;99.90;;;;;;5120738;28;20439;-82
2021/04/05 04:37:58;;;;;;;16.23;8.43;;;4.40;99.90;;;;;;5122677;28;20380;-79
2021/04/05 04:40:25;;;;;;;17.40;9.00;;;4.30;99.90;;;;;;5125560;28;20754;-79
2021/04/05 04:42:55;;;;;;;13.03;7.97;;;4.50;99.90;;;;;;5125045;28;20384;-81
2021/04/05 04:45:20;;;;;;;15.03;8.80;;;4.70;99.90;;;;;;5128014;28;20493;-78
2021/04/05 04:47:49;;;;;;;14.90;8.40;;;4.70;99.90;;;;;;5131843;28;20400;-79
2021/04/05 04:50:16;;;;;;;21.63;8.80;;;4.80;99.90;;;;;;5132214;28;20195;-78
2021/04/05 04:52:42;;;;;;;10.50;7.87;;;5.00;99.90;;;;;;5132575;28;20439;-78
2021/04/05 04:55:09;;;;;;;9.13;6.27;;;5.00;99.90;;;;;;5132846;28;20385;-78
2021/04/05 04:57:35;;;;;;;16.40;9.93;;;5.20;99.90;;;;;;5132977;28;20894;-78
2021/04/05 05:00:04;;;;;;;9.43;7.30;;;5.10;99.90;;;;;;5132718;28;20500;-78
2021/04/05 05:02:36;;;;;;;13.23;8.17;;;5.00;99.90;;;;;;5135788;28;20267;-78
2021/04/05 05:05:03;;;;;;;16.23;9.03;;;5.00;99.90;;;;;;5133754;28;20385;-78
2021/04/05 05:07:31;;;;;;;13.33;7.00;;;4.90;99.90;;;;;;5133841;28;20438;-79
2021/04/05 05:09:57;;;;;;;9.33;7.73;;;4.30;99.90;;;;;;5133447;28;20388;-78
2021/04/05 05:12:23;;;;;;;10.17;7.67;;;4.30;99.90;;;;;;5129768;28;20439;-81
2021/04/05 05:14:49;;;;;;;14.97;7.33;;;4.10;99.90;;;;;;5119840;28;20166;-81
2021/04/05 05:17:17;;;;;;;13.50;7.70;;;4.20;99.90;;;;;;5119637;28;20425;-81
2021/04/05 05:19:44;;;;;;;8.50;7.70;;;4.20;99.90;;;;;;5119707;28;20392;-81
2021/04/05 05:22:15;;;;;;;20.83;8.50;;;4.20;99.90;;;;;;5119389;28;20402;-81
2021/04/05 05:24:44;;;;;;;11.30;7.30;;;4.20;99.90;;;;;;5101045;28;20452;-81
2021/04/05 05:27:11;;;;;;;14.20;9.63;;;4.10;99.90;;;;;;5118805;28;20427;-81
2021/04/05 05:29:38;;;;;;;10.60;8.47;;;4.10;99.90;;;;;;5118957;28;20388;-81
2021/04/05 05:32:05;;;;;;;13.07;8.23;;;4.40;99.90;;;;;;5118788;28;20399;-81
2021/04/05 05:34:32;;;;;;;12.50;8.90;;;4.50;99.90;;;;;;5119153;28;20860;-81
2021/04/05 05:36:58;;;;;;;13.53;9.67;;;4.50;99.90;;;;;;5118556;28;20403;-80
2021/04/05 05:39:26;;;;;;;15.80;9.90;;;4.60;99.90;;;;;;5100349;28;20392;-80
2021/04/05 05:42:19;;;;;;;15.60;9.00;;;4.60;99.90;;;;;;5118096;28;20508;-81
2021/04/05 05:44:55;;;;;;;19.03;8.60;;;4.50;99.90;;;;;;5099498;28;20553;-80
2021/04/05 05:47:39;;;;;;;19.57;7.70;;;4.70;99.90;;;;;;5118305;28;20404;-81
2021/04/05 05:50:24;;;;;;;13.33;8.40;;;4.70;99.90;;;;;;5118560;28;20388;-81
2021/04/05 05:53:04;;;;;;;13.67;9.07;;;4.80;99.90;;;;;;5118496;28;20441;-81
2021/04/05 05:55:59;;;;;;;15.47;6.80;;;4.90;99.90;;;;;;5120460;28;20395;-79
2021/04/05 05:58:39;;;;;;;15.77;8.67;;;5.00;99.90;;;;;;5107899;28;20441;-79
2021/04/05 06:01:17;;;;;;;16.47;8.53;;;5.20;99.90;;;;;;5117953;28;20483;-81
2021/04/05 06:04:18;;;;;;;17.03;9.20;;;5.30;99.90;;;;;;5119217;28;20388;-81
2021/04/05 06:07:02;;;;;;;13.70;8.33;;;5.50;99.90;;;;;;5117790;28;20414;-81
2021/04/05 06:09:55;;;;;;;8.27;7.00;;;5.50;99.90;;;;;;5118487;28;20892;-81
2021/04/05 06:12:44;;;;;;;6.97;6.37;;;5.70;99.90;;;;;;5117685;28;20453;-81
2021/04/05 06:15:17;;;;;;;14.53;7.07;;;5.80;99.90;;;;;;5118027;28;20419;-81
2021/04/05 06:18:15;;;;;;;12.00;7.70;;;5.90;99.90;;;;;;5118251;28;20380;-81
2021/04/05 06:21:16;;;;;;;9.93;7.43;;;6.00;99.90;;;;;;5117304;28;20447;-81
2021/04/05 06:23:50;;;;;;;11.60;6.10;;;6.30;99.90;;;;;;5117400;28;20966;-81
2021/04/05 06:26:40;;;;;;;9.70;7.57;;;6.30;99.90;;;;;;5118552;28;20854;-81
2021/04/05 06:29:26;;;;;;;13.73;7.27;;;6.50;99.90;;;;;;5118460;28;20403;-81
2021/04/05 06:32:16;;;;;;;9.73;7.27;;;6.40;99.90;;;;;;5099271;28;20495;-81
2021/04/05 06:35:16;;;;;;;28.57;7.30;;;6.60;99.90;;;;;;5117680;28;20486;-81
2021/04/05 06:37:46;;;;;;;15.83;9.70;;;6.40;99.90;;;;;;5117593;28;20763;-81
2021/04/05 06:40:18;;;;;;;13.73;8.83;;;6.60;99.90;;;;;;5118133;28;20929;-81
2021/04/05 06:43:07;;;;;;;12.03;7.03;;;6.70;99.90;;;;;;5117860;28;20417;-81
2021/04/05 06:46:07;;;;;;;14.37;9.60;;;6.90;99.90;;;;;;5117895;28;20455;-81
2021/04/05 06:49:07;;;;;;;12.90;7.13;;;6.70;99.90;;;;;;5120999;28;20771;-81
2021/04/05 06:51:59;;;;;;;15.23;7.00;;;6.90;99.90;;;;;;5121792;28;20400;-81
2021/04/05 06:54:47;;;;;;;23.83;8.60;;;7.00;99.90;;;;;;5122024;28;20785;-81
2021/04/05 06:57:22;;;;;;;11.30;8.63;;;7.10;99.90;;;;;;5121745;28;20469;-81
2021/04/05 07:00:00;;;;;;;9.23;6.10;;;7.40;99.90;;;;;;5121731;28;20428;-81
2021/04/05 07:02:58;;;;;;;7.47;6.60;;;7.50;99.90;;;;;;5121753;28;20375;-81
2021/04/05 07:05:49;;;;;;;11.83;6.87;;;7.50;99.90;;;;;;5090471;28;20399;-81
2021/04/05 07:08:26;;;;;;;11.83;6.17;;;7.60;99.90;;;;;;5121915;28;20427;-81
2021/04/05 07:11:16;;;;;;;12.33;6.70;;;7.70;99.90;;;;;;5122026;28;20384;-81
2021/04/05 07:14:03;;;;;;;9.33;7.13;;;7.60;99.90;;;;;;5121978;28;20534;-81
2021/04/05 07:17:00;;;;;;;15.40;6.50;;;7.80;99.90;;;;;;5121849;28;20420;-81
2021/04/05 07:19:57;;;;;;;6.27;4.77;;;8.00;99.90;;;;;;5121900;28;20395;-81
2021/04/05 07:22:39;;;;;;;11.23;5.97;;;8.00;99.90;;;;;;5121785;28;20394;-81
2021/04/05 07:25:09;;;;;;;8.30;4.53;;;8.30;99.90;;;;;;5122099;28;20915;-81
2021/04/05 07:27:49;;;;;;;9.87;5.97;;;8.30;99.90;;;;;;5121966;28;20403;-81
2021/04/05 07:30:30;;;;;;;15.63;5.50;;;8.40;99.90;;;;;;5122341;28;20400;-82
2021/04/05 07:33:22;;;;;;;12.90;7.20;;;8.60;99.90;;;;;;5122179;28;20439;-81
2021/04/05 07:36:10;;;;;;;7.20;4.83;;;8.60;99.90;;;;;;5121638;28;20388;-82
2021/04/05 07:38:46;;;;;;;12.60;5.27;;;8.70;99.90;;;;;;5123510;28;20814;-79
2021/04/05 07:41:30;;;;;;;6.27;4.63;;;8.70;99.90;;;;;;5125475;28;20438;-79
2021/04/05 07:44:11;;;;;;;8.43;5.60;;;8.60;99.90;;;;;;5125847;28;20398;-79
2021/04/05 07:46:46;;;;;;;10.10;6.07;;;8.60;99.90;;;;;;5125093;28;20549;-79
2021/04/05 07:49:33;;;;;;;7.87;5.20;;;8.70;99.90;;;;;;5125834;28;20399;-79
2021/04/05 07:52:20;;;;;;;7.33;4.93;;;8.70;99.90;;;;;;5121889;28;20419;-80
2021/04/05 07:54:47;;;;;;;9.13;4.10;;;8.70;99.90;;;;;;5123684;28;20448;-79
2021/04/05 07:57:27;;;;;;;15.13;6.43;;;8.70;99.90;;;;;;5123364;28;20389;-79
2021/04/05 08:00:08;;;;;;;12.50;5.50;;;8.70;99.90;;;;;;5122008;28;20395;-81
2021/04/05 08:02:46;;;;;;;6.80;5.57;;;8.80;99.90;;;;;;5104102;28;20426;-80
2021/04/05 08:05:20;;;;;;;8.43;5.73;;;8.70;99.90;;;;;;5120501;28;20396;-81
2021/04/05 08:08:06;;;;;;;13.73;5.87;;;8.70;99.90;;;;;;5121182;28;20420;-79
2021/04/05 08:10:46;;;;;;;21.83;7.90;;;8.80;99.90;;;;;;5120280;28;20400;-80
2021/04/05 08:13:31;;;;;;;6.33;5.57;;;8.70;99.90;;;;;;5120487;28;20435;-81
2021/04/05 08:16:20;;;;;;;7.87;4.60;;;8.70;99.90;;;;;;5120933;28;20388;-81
2021/04/05 08:19:12;;;;;;;15.03;6.70;;;8.80;99.90;;;;;;5120511;28;20384;-82
2021/04/05 08:21:50;;;;;;;10.70;5.37;;;8.80;99.90;;;;;;5102846;28;20388;-82
2021/04/05 08:24:46;;;;;;;10.27;5.47;;;8.90;99.90;;;;;;5120984;28;20521;-82
2021/04/05 08:27:31;;;;;;;10.20;6.23;;;8.80;99.90;;;;;;5101945;28;20431;-82
2021/04/05 08:30:04;;;;;;;18.97;6.20;;;8.90;99.90;;;;;;5088351;28;20392;-82
2021/04/05 08:32:51;;;;;;;6.67;5.87;;;8.90;99.90;;;;;;5120216;28;20435;-80
2021/04/05 08:35:43;;;;;;;14.13;6.43;;;9.10;99.90;;;;;;5119813;28;20380;-82
2021/04/05 08:38:17;;;;;;;10.47;5.93;;;9.10;99.90;;;;;;5104243;28;20392;-82
2021/04/05 08:41:06;;;;;;;11.33;5.60;;;9.10;99.90;;;;;;5120067;28;20908;-82
2021/04/05 08:43:41;;;;;;;9.93;6.27;;;9.10;99.90;;;;;;5119984;28;20908;-82
2021/04/05 08:46:19;;;;;;;9.47;6.80;;;9.30;99.90;;;;;;5109007;28;20454;-80
2021/04/05 08:48:51;;;;;;;8.03;4.90;;;9.30;99.90;;;;;;5119945;28;20395;-82
2021/04/05 08:51:28;;;;;;;11.07;5.70;;;9.40;99.90;;;;;;5120067;28;20388;-82
2021/04/05 08:53:57;;;;;;;9.33;5.30;;;9.50;99.90;;;;;;5120680;28;20431;-80
2021/04/05 08:56:29;;;;;;;11.30;6.90;;;9.60;99.90;;;;;;5119863;28;20739;-80
2021/04/05 08:59:02;;;;;;;9.17;5.37;;;9.30;99.90;;;;;;5123734;28;20392;-79
2021/04/05 09:01:39;;;;;;;7.03;4.80;;;9.50;99.90;;;;;;5126742;28;20483;-83
2021/04/05 09:04:06;;;;;;;11.60;6.83;;;9.50;99.90;;;;;;5120198;28;20391;-82
2021/04/05 09:06:56;;;;;;;17.77;6.23;;;9.30;99.90;;;;;;5120598;28;20415;-83
2021/04/05 09:09:25;;;;;;;10.83;5.50;;;9.20;99.90;;;;;;5118826;28;20396;-82
2021/04/05 09:11:53;;;;;;;8.80;6.77;;;9.50;99.90;;;;;;5119578;28;20460;-82
2021/04/05 09:14:21;;;;;;;11.70;6.87;;;9.60;99.90;;;;;;5119632;28;20401;-83
2021/04/05 09:17:23;;;;;;;8.47;5.83;;;9.70;99.90;;;;;;5119426;28;20448;-82
2021/04/05 09:20:18;;;;;;;15.53;5.70;;;9.90;99.90;;;;;;5119509;28;20388;-82
2021/04/05 09:23:17;;;;;;;19.30;7.70;;;9.90;99.90;;;;;;5100754;28;20387;-82
2021/04/05 09:26:17;;;;;;;14.10;7.70;;;9.90;99.90;;;;;;5118617;28;20442;-82
2021/04/05 09:29:07;;;;;;;11.37;5.63;;;10.00;99.90;;;;;;5106165;28;20397;-82
2021/04/05 09:32:01;;;;;;;9.13;6.37;;;10.10;99.90;;;;;;5119541;28;20454;-82
2021/04/05 09:35:01;;;;;;;10.47;7.00;;;10.20;99.90;;;;;;5118709;28;20388;-81
2021/04/05 09:37:47;;;;;;;15.50;7.47;;;10.20;99.90;;;;;;5106180;28;20445;-82
2021/04/05 09:40:44;;;;;;;11.53;7.17;;;10.20;99.90;;;;;;5119169;28;20379;-82
2021/04/05 09:43:40;;;;;;;14.20;7.63;;;10.20;99.90;;;;;;5103253;28;20899;-81
2021/04/05 09:50:02;;;;;;;11.83;7.60;;;9.80;99.90;;;;;;5050704;28;20928;-79
2021/04/05 09:53:01;;;;;;;18.23;7.20;;;9.70;99.90;;;;;;5065480;28;20462;-80
2021/04/05 09:55:33;;;;;;;14.23;7.33;;;9.60;99.90;;;;;;5066759;28;20395;-81
2021/04/05 09:58:31;;;;;;;11.03;7.73;;;9.90;99.90;;;;;;5070481;28;20413;-79
2021/04/05 10:01:03;;;;;;;15.20;8.30;;;10.10;99.90;;;;;;5074281;28;20387;-80
2021/04/05 10:03:29;;;;;;;15.97;9.00;;;10.20;99.90;;;;;;5071294;28;20415;-80
2021/04/05 10:05:57;;;;;;;12.17;8.10;;;10.30;99.90;;;;;;5064573;28;20467;-80
2021/04/05 10:08:25;;;;;;;15.27;7.73;;;10.30;99.90;;;;;;5065112;28;20469;-80
2021/04/05 10:10:54;;;;;;;14.57;7.07;;;10.30;99.90;;;;;;5064472;28;20448;-80
2021/04/05 10:13:26;;;;;;;10.60;7.80;;;10.20;99.90;;;;;;5049073;28;20504;-80
2021/04/05 10:15:55;;;;;;;16.50;9.63;;;9.90;99.90;;;;;;5065113;28;20390;-81
2021/04/05 10:18:22;;;;;;;9.87;7.60;;;10.00;99.90;;;;;;5064531;28;20389;-80
2021/04/05 10:20:51;;;;;;;15.63;8.80;;;10.00;99.90;;;;;;5100785;28;20443;-81
2021/04/05 10:23:30;;;;;;;19.53;8.57;;;9.90;99.90;;;;;;5108810;28;20488;-81
2021/04/05 10:26:00;;;;;;;15.17;8.80;;;9.70;99.90;;;;;;5109347;28;20388;-81
2021/04/05 10:28:32;;;;;;;17.57;8.43;;;9.70;99.90;;;;;;5126548;28;20892;-80
2021/04/05 10:31:01;;;;;;;16.70;10.30;;;9.80;99.90;;;;;;5109660;28;20408;-80
2021/04/05 10:33:32;;;;;;;17.10;8.93;;;9.70;99.90;;;;;;5126847;28;20443;-80
2021/04/05 10:36:04;;;;;;;13.93;9.30;;;9.70;99.90;;;;;;5127102;28;20399;-80
2021/04/05 10:38:31;;;;;;;15.33;8.80;;;9.70;99.90;;;;;;5127169;28;20430;-80
2021/04/05 10:40:57;;;;;;;20.13;10.83;;;9.70;99.90;;;;;;5091843;28;20400;-80
2021/04/05 10:43:35;;;;;;;17.80;8.83;;;9.70;99.90;;;;;;5127630;28;20399;-80
2021/04/05 10:46:12;;;;;;;13.90;9.17;;;9.80;99.90;;;;;;5126125;28;20494;-80
2021/04/05 10:48:43;;;;;;;20.57;9.90;;;9.60;99.90;;;;;;5092318;28;20400;-80
2021/04/05 10:51:23;;;;;;;16.43;11.00;;;9.60;99.90;;;;;;5127398;28;20419;-80
2021/04/05 10:53:59;;;;;;;26.43;12.10;;;9.50;99.90;;;;;;5126992;28;20428;-80
2021/04/05 10:56:27;;;;;;;13.13;8.23;;;9.30;99.90;;;;;;5127766;28;20384;-80
2021/04/05 10:59:08;;;;;;;17.63;8.30;;;9.50;99.90;;;;;;5127391;28;20460;-80
2021/04/05 11:01:44;;;;;;;16.00;9.90;;;9.60;99.90;;;;;;5127347;28;20488;-79
2021/04/05 11:04:12;;;;;;;25.47;10.90;;;9.30;99.90;;;;;;5109689;28;20456;-79
2021/04/05 11:06:38;;;;;;;22.03;9.73;;;9.30;99.90;;;;;;5110590;28;20459;-80
2021/04/05 11:09:07;;;;;;;14.00;10.70;;;9.40;99.90;;;;;;5109916;28;20467;-80
2021/04/05 11:11:35;;;;;;;16.77;10.07;;;9.50;99.90;;;;;;5127354;28;20399;-80
2021/04/05 11:14:07;;;;;;;12.63;9.00;;;9.60;99.90;;;;;;5127542;28;20997;-80
2021/04/05 11:16:34;;;;;;;13.77;8.97;;;9.70;99.90;;;;;;5128118;28;20714;-80
2021/04/05 11:19:07;;;;;;;11.57;8.13;;;9.70;99.90;;;;;;5127927;28;20396;-80
2021/04/05 11:21:38;;;;;;;21.97;10.83;;;9.60;99.90;;;;;;5127526;28;20427;-80
2021/04/05 11:24:08;;;;;;;20.73;10.20;;;9.70;99.90;;;;;;5127562;28;20392;-80
2021/04/05 11:26:36;;;;;;;18.83;10.30;;;9.60;99.90;;;;;;5127485;28;20396;-80
2021/04/05 11:29:05;;;;;;;15.43;8.20;;;9.40;99.90;;;;;;5110254;28;20402;-80
2021/04/05 11:31:37;;;;;;;19.30;9.73;;;9.60;99.90;;;;;;5112785;28;20391;-80
2021/04/05 11:34:04;;;;;;;15.23;9.50;;;9.50;99.90;;;;;;5120000;28;20452;-80
2021/04/05 11:36:38;;;;;;;15.10;9.60;;;9.50;99.90;;;;;;5138451;28;20384;-80
2021/04/05 11:39:10;;;;;;;14.57;10.07;;;9.60;99.90;;;;;;5138609;28;20399;-80
2021/04/05 11:41:38;;;;;;;17.77;9.80;;;9.80;99.90;;;;;;5098108;28;20396;-80
2021/04/05 11:44:06;;;;;;;13.90;9.47;;;9.80;99.90;;;;;;5132464;28;21000;-81
2021/04/05 11:46:36;;;;;;;17.60;11.97;;;9.80;99.90;;;;;;5131117;28;20450;-80
2021/04/05 11:49:05;;;;;;;13.93;9.10;;;9.90;99.90;;;;;;5131731;28;20483;-80
2021/04/05 11:51:39;;;;;;;14.93;8.90;;;9.70;99.90;;;;;;5112738;28;20760;-80
2021/04/05 11:54:07;;;;;;;19.07;10.53;;;9.70;99.90;;;;;;5113566;28;20443;-80
2021/04/05 11:56:36;;;;;;;16.60;11.13;;;9.60;99.90;;;;;;5130889;28;20391;-80
2021/04/05 11:59:16;;;;;;;17.40;11.93;;;9.80;99.90;;;;;;5131234;28;20794;-80
2021/04/05 12:02:02;;;;;;;25.37;13.37;;;9.70;99.90;;;;;;5130710;28;20392;-80
2021/04/05 12:04:35;;;;;;;20.27;10.83;;;9.80;99.90;;;;;;5130354;28;20537;-80
2021/04/05 12:07:19;;;;;;;20.83;11.63;;;9.80;99.90;;;;;;5132342;28;20395;-80
2021/04/05 12:10:10;;;;;;;16.20;11.20;;;9.80;99.90;;;;;;5132470;28;20375;-78
2021/04/05 12:12:41;;;;;;;16.67;10.50;;;9.70;99.90;;;;;;5131828;28;20503;-80
2021/04/05 12:15:13;;;;;;;19.83;11.70;;;9.50;99.90;;;;;;5113530;28;20384;-80
2021/04/05 12:17:41;;;;;;;17.40;12.13;;;9.30;99.90;;;;;;5113051;28;20391;-80
2021/04/05 12:20:08;;;;;;;18.37;10.27;;;9.10;99.90;;;;;;5112967;28;20395;-80
2021/04/05 12:22:35;;;;;;;18.77;10.57;;;9.10;99.90;;;;;;5113382;28;20438;-80
2021/04/05 12:25:02;;;;;;;14.77;9.23;;;9.00;99.90;;;;;;5130785;28;20432;-80
2021/04/05 12:27:34;;;;;;;18.10;13.77;;;9.00;99.90;;;;;;5136154;27;20407;-80
2021/04/05 12:30:02;;;;;;;21.60;11.83;;;8.90;99.90;;;;;;5138954;27;20420;-81
2021/04/05 12:32:29;;;;;;;21.17;9.43;;;8.80;99.90;;;;;;5113153;28;20450;-80
2021/04/05 12:34:59;;;;;;;14.30;10.07;;;8.90;99.90;;;;;;5130650;28;20420;-81
2021/04/05 12:37:29;;;;;;;16.50;10.40;;;8.90;99.90;;;;;;5077600;28;20412;-80
2021/04/05 12:40:00;;;;;;;20.70;13.30;;;8.90;99.90;;;;;;5130589;28;20407;-80
2021/04/05 12:42:31;;;;;;;19.33;10.87;;;8.80;99.90;;;;;;5130885;28;20392;-80
2021/04/05 12:45:00;;;;;;;19.63;9.00;;;8.90;99.90;;;;;;5095417;28;20856;-80
2021/04/05 12:47:37;;;;;;;21.43;10.87;;;8.90;99.90;;;;;;5130078;28;20400;-80
2021/04/05 12:50:08;;;;;;;15.10;9.07;;;8.70;99.90;;;;;;5131326;28;20395;-80
2021/04/05 12:52:37;;;;;;;10.53;8.97;;;8.80;99.90;;;;;;5129487;28;20467;-80
2021/04/05 12:55:12;;;;;;;13.30;10.00;;;8.80;99.90;;;;;;5129988;28;20391;-80
2021/04/05 12:57:38;;;;;;;24.03;15.27;;;8.70;99.90;;;;;;5129579;28;20423;-80
2021/04/05 13:00:21;;;;;;;15.47;10.07;;;8.90;99.90;;;;;;5095634;28;20426;-80
2021/04/05 13:03:06;;;;;;;12.33;8.60;;;8.90;99.90;;;;;;5130083;28;20391;-79
2021/04/05 13:05:40;;;;;;;12.43;10.07;;;8.90;99.90;;;;;;5130067;28;20415;-80
2021/04/05 13:08:25;;;;;;;16.90;9.37;;;8.90;99.90;;;;;;5112415;28;20435;-80
2021/04/05 13:11:12;;;;;;;18.43;10.57;;;8.90;99.90;;;;;;5114209;28;20396;-79
2021/04/05 13:13:47;;;;;;;28.23;10.07;;;8.80;99.90;;;;;;5134674;28;20436;-79
2021/04/05 13:16:25;;;;;;;18.07;9.40;;;8.90;99.90;;;;;;5115785;28;20402;-79
2021/04/05 13:18:53;;;;;;;18.33;10.33;;;8.80;99.90;;;;;;5113957;28;20388;-80
2021/04/05 13:21:20;;;;;;;16.90;9.73;;;8.70;99.90;;;;;;5117912;28;20449;-79
2021/04/05 13:23:51;;;;;;;12.57;8.80;;;8.60;99.90;;;;;;5135752;28;20449;-81
2021/04/05 13:26:26;;;;;;;13.73;8.00;;;8.50;99.90;;;;;;5138085;28;20415;-80
2021/04/05 13:28:54;;;;;;;18.07;8.83;;;8.30;99.90;;;;;;5113940;28;20419;-80